Spring Eagle — WDE8767 — position and weather

sailwx.info

Track history (hours):
 
Tides and Currents Weather Stations Pressure Air Temp Water Temp Dewpoint Dewpoint Depression Visibility Wind Speed Wind Dir Waves Ship Positions

Spring Eagle

Owner: M/V Spring Eagle, Galliano, LA. More information available from US FCC via Universal Licensing System and Coast Guard Vessel Documentation Center.

Last reported at 2017-Sep-21 04:33 UTC. Time now 2017-Sep-22 22:36 UTC.
Position N 29°33' W 090°42'.

Length 16 m; draft 2.5 m.

Type: Tug. MMSI: 367409340.

Date/timePositionNaut miles runAvg speedWind from/ knotsBaromVisibWave heightAir tempDewpointWater temp
2017-Sep-21 04:33N 29°33' W 090°42'0 4.4
2017-Sep-21 04:31N 29°33' W 090°42'3 6.3
2017-Sep-21 04:00N 29°29' W 090°43'3 6.5
2017-Sep-21 03:30N 29°26' W 090°43'3 6.4
2017-Sep-21 03:00N 29°23' W 090°44'20 1.4
2017-Sep-20 13:12N 29°35' W 090°26'1 4.5
2017-Sep-20 12:56N 29°35' W 090°27'2 0.9
2017-Sep-20 10:03N 29°37' W 090°29'0 4.5
2017-Sep-20 09:57N 29°36' W 090°29'2 4.4
2017-Sep-20 09:24N 29°35' W 090°27'  
2017-Sep-17 19:42N 29°33' W 090°26'1 7.0
2017-Sep-17 19:29N 29°34' W 090°28'4 7.3
2017-Sep-17 19:01N 29°34' W 090°32'3 6.8
2017-Sep-17 18:30N 29°35' W 090°36'3 5.4
2017-Sep-17 17:59N 29°36' W 090°39'3 5.9
2017-Sep-17 17:31N 29°37' W 090°42'3 5.3
2017-Sep-17 17:00N 29°34' W 090°43'2 3.3
2017-Sep-17 16:31N 29°33' W 090°42'0 0.0
2017-Sep-17 16:01N 29°33' W 090°42'0 0.2
2017-Sep-17 15:30N 29°33' W 090°42'0 0.0
2017-Sep-17 15:01N 29°33' W 090°42'0 0.1
2017-Sep-17 14:31N 29°33' W 090°42'0 0.2
2017-Sep-17 14:01N 29°33' W 090°42'0 0.2
2017-Sep-17 13:30N 29°33' W 090°42'0 0.1
2017-Sep-17 13:01N 29°33' W 090°42'0 0.0
2017-Sep-17 12:31N 29°33' W 090°42'0 0.0
2017-Sep-16 04:39N 29°33' W 090°42'0 0.5
2017-Sep-16 04:30N 29°33' W 090°42'2 4.0
2017-Sep-16 04:00N 29°31' W 090°43'3 5.2
2017-Sep-16 03:30N 29°28' W 090°43'3 5.0
2017-Sep-16 03:00N 29°26' W 090°43'  
2017-Sep-13 16:36N 29°33' W 090°26'2 6.1
2017-Sep-13 16:20N 29°33' W 090°28'2 6.1
2017-Sep-13 16:00N 29°34' W 090°31'3 6.0
2017-Sep-13 15:30N 29°34' W 090°34'3 5.7
2017-Sep-13 15:00N 29°35' W 090°37'3 6.0
2017-Sep-13 14:30N 29°36' W 090°40'2 4.3
2017-Sep-13 14:00N 29°36' W 090°43'2 4.2
2017-Sep-13 13:30N 29°34' W 090°43'1 2.3
2017-Sep-13 13:00N 29°33' W 090°42'  
Track history (hours):
 
Tides and Currents Weather Stations Pressure Air Temp Water Temp Dewpoint Dewpoint Depression Visibility Wind Speed Wind Dir Waves Ship Positions

Spring Eagle

Owner: M/V Spring Eagle, Galliano, LA. More information available from US FCC via Universal Licensing System and Coast Guard Vessel Documentation Center.

Last reported at 2017-Sep-21 04:33 UTC. Time now 2017-Sep-22 22:36 UTC.
Position N 29°33' W 090°42'.

Length 16 m; draft 2.5 m.

Type: Tug. MMSI: 367409340.

Date/timePositionNaut miles runAvg speedWind from/ knotsBaromVisibWave heightAir tempDewpointWater temp
2017-Sep-21 04:33N 29°33' W 090°42'0 4.4
2017-Sep-21 04:31N 29°33' W 090°42'3 6.3
2017-Sep-21 04:00N 29°29' W 090°43'3 6.5
2017-Sep-21 03:30N 29°26' W 090°43'3 6.4
2017-Sep-21 03:00N 29°23' W 090°44'20 1.4
2017-Sep-20 13:12N 29°35' W 090°26'1 4.5
2017-Sep-20 12:56N 29°35' W 090°27'2 0.9
2017-Sep-20 10:03N 29°37' W 090°29'0 4.5
2017-Sep-20 09:57N 29°36' W 090°29'2 4.4
2017-Sep-20 09:24N 29°35' W 090°27'  
2017-Sep-17 19:42N 29°33' W 090°26'1 7.0
2017-Sep-17 19:29N 29°34' W 090°28'4 7.3
2017-Sep-17 19:01N 29°34' W 090°32'3 6.8
2017-Sep-17 18:30N 29°35' W 090°36'3 5.4
2017-Sep-17 17:59N 29°36' W 090°39'3 5.9
2017-Sep-17 17:31N 29°37' W 090°42'3 5.3
2017-Sep-17 17:00N 29°34' W 090°43'2 3.3
2017-Sep-17 16:31N 29°33' W 090°42'0 0.0
2017-Sep-17 16:01N 29°33' W 090°42'0 0.2
2017-Sep-17 15:30N 29°33' W 090°42'0 0.0
2017-Sep-17 15:01N 29°33' W 090°42'0 0.1
2017-Sep-17 14:31N 29°33' W 090°42'0 0.2
2017-Sep-17 14:01N 29°33' W 090°42'0 0.2
2017-Sep-17 13:30N 29°33' W 090°42'0 0.1
2017-Sep-17 13:01N 29°33' W 090°42'0 0.0
2017-Sep-17 12:31N 29°33' W 090°42'0 0.0
2017-Sep-16 04:39N 29°33' W 090°42'0 0.5
2017-Sep-16 04:30N 29°33' W 090°42'2 4.0
2017-Sep-16 04:00N 29°31' W 090°43'3 5.2
2017-Sep-16 03:30N 29°28' W 090°43'3 5.0
2017-Sep-16 03:00N 29°26' W 090°43'  
2017-Sep-13 16:36N 29°33' W 090°26'2 6.1
2017-Sep-13 16:20N 29°33' W 090°28'2 6.1
2017-Sep-13 16:00N 29°34' W 090°31'3 6.0
2017-Sep-13 15:30N 29°34' W 090°34'3 5.7
2017-Sep-13 15:00N 29°35' W 090°37'3 6.0
2017-Sep-13 14:30N 29°36' W 090°40'2 4.3
2017-Sep-13 14:00N 29°36' W 090°43'2 4.2
2017-Sep-13 13:30N 29°34' W 090°43'1 2.3
2017-Sep-13 13:00N 29°33' W 090°42'  

Dump ship's entire track history